sensor_id;sensor_type;location;lat;lon;timestamp;temperature;humidity
22852;DHT22;11592;45.460;9.240;2022-12-18T00:01:20;8.50;99.90
22852;DHT22;11592;45.460;9.240;2022-12-18T00:03:48;8.40;99.90
22852;DHT22;11592;45.460;9.240;2022-12-18T00:06:16;8.30;99.90
22852;DHT22;11592;45.460;9.240;2022-12-18T00:08:44;8.30;99.90
22852;DHT22;11592;45.460;9.240;2022-12-18T00:11:15;8.40;99.90
22852;DHT22;11592;45.460;9.240;2022-12-18T00:13:43;8.30;99.90
22852;DHT22;11592;45.460;9.240;2022-12-18T00:16:13;8.30;99.90
22852;DHT22;11592;45.460;9.240;2022-12-18T00:18:41;8.30;99.90
22852;DHT22;11592;45.460;9.240;2022-12-18T00:21:10;8.20;99.90
22852;DHT22;11592;45.460;9.240;2022-12-18T00:23:38;8.10;99.90
22852;DHT22;11592;45.460;9.240;2022-12-18T00:26:11;8.00;99.90
22852;DHT22;11592;45.460;9.240;2022-12-18T00:28:38;8.00;99.90
22852;DHT22;11592;45.460;9.240;2022-12-18T00:31:10;8.00;99.90
22852;DHT22;11592;45.460;9.240;2022-12-18T00:33:38;8.10;99.90
22852;DHT22;11592;45.460;9.240;2022-12-18T00:36:11;8.10;99.90
22852;DHT22;11592;45.460;9.240;2022-12-18T00:38:39;8.10;99.90
22852;DHT22;11592;45.460;9.240;2022-12-18T00:41:06;8.10;99.90
22852;DHT22;11592;45.460;9.240;2022-12-18T00:43:34;8.00;99.90
22852;DHT22;11592;45.460;9.240;2022-12-18T00:46:01;8.00;99.90
22852;DHT22;11592;45.460;9.240;2022-12-18T00:48:28;7.90;99.90
22852;DHT22;11592;45.460;9.240;2022-12-18T00:50:55;7.90;99.90
22852;DHT22;11592;45.460;9.240;2022-12-18T00:53:22;7.90;99.90
22852;DHT22;11592;45.460;9.240;2022-12-18T00:55:48;7.90;99.90
22852;DHT22;11592;45.460;9.240;2022-12-18T00:58:16;7.80;99.90
22852;DHT22;11592;45.460;9.240;2022-12-18T01:00:43;7.80;99.90
22852;DHT22;11592;45.460;9.240;2022-12-18T01:03:13;7.70;99.90
22852;DHT22;11592;45.460;9.240;2022-12-18T01:05:41;7.40;99.90
22852;DHT22;11592;45.460;9.240;2022-12-18T01:08:08;7.10;99.90
22852;DHT22;11592;45.460;9.240;2022-12-18T01:10:35;6.90;99.90
22852;DHT22;11592;45.460;9.240;2022-12-18T01:13:02;6.70;99.90
22852;DHT22;11592;45.460;9.240;2022-12-18T01:15:28;6.60;99.90
22852;DHT22;11592;45.460;9.240;2022-12-18T01:17:55;6.60;99.90
22852;DHT22;11592;45.460;9.240;2022-12-18T01:20:22;6.70;99.90
22852;DHT22;11592;45.460;9.240;2022-12-18T01:22:49;6.70;99.90
22852;DHT22;11592;45.460;9.240;2022-12-18T01:25:15;6.60;99.90
22852;DHT22;11592;45.460;9.240;2022-12-18T01:27:42;6.50;99.90
22852;DHT22;11592;45.460;9.240;2022-12-18T01:30:09;6.50;99.90
22852;DHT22;11592;45.460;9.240;2022-12-18T01:32:36;6.50;99.90
22852;DHT22;11592;45.460;9.240;2022-12-18T01:35:04;6.50;99.90
22852;DHT22;11592;45.460;9.240;2022-12-18T01:37:31;6.40;99.90
22852;DHT22;11592;45.460;9.240;2022-12-18T01:39:57;6.50;99.90
22852;DHT22;11592;45.460;9.240;2022-12-18T01:42:24;6.50;99.90
22852;DHT22;11592;45.460;9.240;2022-12-18T01:45:02;6.40;99.90
22852;DHT22;11592;45.460;9.240;2022-12-18T01:47:49;6.30;99.90
22852;DHT22;11592;45.460;9.240;2022-12-18T01:50:38;6.30;99.90
22852;DHT22;11592;45.460;9.240;2022-12-18T01:53:12;6.30;99.90
22852;DHT22;11592;45.460;9.240;2022-12-18T01:55:53;6.30;99.90
22852;DHT22;11592;45.460;9.240;2022-12-18T01:59:08;6.30;99.90
22852;DHT22;11592;45.460;9.240;2022-12-18T02:01:10;6.20;99.90
22852;DHT22;11592;45.460;9.240;2022-12-18T02:03:37;6.20;99.90
22852;DHT22;11592;45.460;9.240;2022-12-18T02:06:13;6.40;99.90
22852;DHT22;11592;45.460;9.240;2022-12-18T02:09:09;6.60;99.90
22852;DHT22;11592;45.460;9.240;2022-12-18T02:11:50;6.80;99.90
22852;DHT22;11592;45.460;9.240;2022-12-18T02:14:34;6.90;99.90
22852;DHT22;11592;45.460;9.240;2022-12-18T02:17:12;7.00;99.90
22852;DHT22;11592;45.460;9.240;2022-12-18T02:27:45;6.20;99.90
22852;DHT22;11592;45.460;9.240;2022-12-18T02:30:14;6.20;99.90
22852;DHT22;11592;45.460;9.240;2022-12-18T02:32:45;6.20;99.90
22852;DHT22;11592;45.460;9.240;2022-12-18T02:35:16;6.30;99.90
22852;DHT22;11592;45.460;9.240;2022-12-18T02:37:45;6.20;99.90
22852;DHT22;11592;45.460;9.240;2022-12-18T02:40:14;6.30;99.90
22852;DHT22;11592;45.460;9.240;2022-12-18T02:42:42;6.30;99.90
22852;DHT22;11592;45.460;9.240;2022-12-18T02:45:09;6.30;99.90
22852;DHT22;11592;45.460;9.240;2022-12-18T02:47:39;6.20;99.90
22852;DHT22;11592;45.460;9.240;2022-12-18T02:50:26;6.10;99.90
22852;DHT22;11592;45.460;9.240;2022-12-18T02:56:03;6.00;99.90
22852;DHT22;11592;45.460;9.240;2022-12-18T02:58:45;6.00;99.90
22852;DHT22;11592;45.460;9.240;2022-12-18T03:01:24;6.00;99.90
22852;DHT22;11592;45.460;9.240;2022-12-18T03:03:59;6.10;99.90
22852;DHT22;11592;45.460;9.240;2022-12-18T03:06:39;6.10;99.90
22852;DHT22;11592;45.460;9.240;2022-12-18T03:09:10;6.10;99.90
22852;DHT22;11592;45.460;9.240;2022-12-18T03:11:41;6.10;99.90
22852;DHT22;11592;45.460;9.240;2022-12-18T03:14:30;6.00;99.90
22852;DHT22;11592;45.460;9.240;2022-12-18T03:17:01;5.90;99.90
22852;DHT22;11592;45.460;9.240;2022-12-18T03:19:32;5.90;99.90
22852;DHT22;11592;45.460;9.240;2022-12-18T03:22:02;6.00;99.90
22852;DHT22;11592;45.460;9.240;2022-12-18T03:24:31;6.00;99.90
22852;DHT22;11592;45.460;9.240;2022-12-18T03:27:02;6.00;99.90
22852;DHT22;11592;45.460;9.240;2022-12-18T03:29:38;6.00;99.90
22852;DHT22;11592;45.460;9.240;2022-12-18T03:32:12;6.10;99.90
22852;DHT22;11592;45.460;9.240;2022-12-18T03:34:40;6.30;99.90
22852;DHT22;11592;45.460;9.240;2022-12-18T03:37:08;6.50;99.90
22852;DHT22;11592;45.460;9.240;2022-12-18T03:39:36;6.60;99.90
22852;DHT22;11592;45.460;9.240;2022-12-18T03:44:56;6.40;99.90
22852;DHT22;11592;45.460;9.240;2022-12-18T03:50:22;6.10;99.90
22852;DHT22;11592;45.460;9.240;2022-12-18T03:53:18;6.00;99.90
22852;DHT22;11592;45.460;9.240;2022-12-18T03:55:48;6.00;99.90
22852;DHT22;11592;45.460;9.240;2022-12-18T03:58:18;6.00;99.90
22852;DHT22;11592;45.460;9.240;2022-12-18T04:00:47;6.00;99.90
22852;DHT22;11592;45.460;9.240;2022-12-18T04:03:16;5.90;99.90
22852;DHT22;11592;45.460;9.240;2022-12-18T04:05:54;5.90;99.90
22852;DHT22;11592;45.460;9.240;2022-12-18T04:08:22;5.80;99.90
22852;DHT22;11592;45.460;9.240;2022-12-18T04:10:49;5.80;99.90
22852;DHT22;11592;45.460;9.240;2022-12-18T04:13:34;5.70;99.90
22852;DHT22;11592;45.460;9.240;2022-12-18T04:16:02;5.60;99.90
22852;DHT22;11592;45.460;9.240;2022-12-18T04:18:30;5.70;99.90
22852;DHT22;11592;45.460;9.240;2022-12-18T04:20:56;5.90;99.90
22852;DHT22;11592;45.460;9.240;2022-12-18T04:23:23;6.10;99.90
22852;DHT22;11592;45.460;9.240;2022-12-18T04:25:50;6.30;99.90
22852;DHT22;11592;45.460;9.240;2022-12-18T04:28:17;6.20;99.90
22852;DHT22;11592;45.460;9.240;2022-12-18T04:30:43;6.00;99.90
22852;DHT22;11592;45.460;9.240;2022-12-18T04:33:12;6.10;99.90
22852;DHT22;11592;45.460;9.240;2022-12-18T04:35:40;6.10;99.90
22852;DHT22;11592;45.460;9.240;2022-12-18T04:38:07;6.00;99.90
22852;DHT22;11592;45.460;9.240;2022-12-18T04:40:36;6.00;99.90
22852;DHT22;11592;45.460;9.240;2022-12-18T04:43:03;5.90;99.90
22852;DHT22;11592;45.460;9.240;2022-12-18T04:45:31;6.00;99.90
22852;DHT22;11592;45.460;9.240;2022-12-18T04:47:59;6.00;99.90
22852;DHT22;11592;45.460;9.240;2022-12-18T04:50:26;6.10;99.90
22852;DHT22;11592;45.460;9.240;2022-12-18T04:52:53;6.10;99.90
22852;DHT22;11592;45.460;9.240;2022-12-18T04:55:20;6.20;99.90
22852;DHT22;11592;45.460;9.240;2022-12-18T04:57:47;6.30;99.90
22852;DHT22;11592;45.460;9.240;2022-12-18T05:00:14;6.20;99.90
22852;DHT22;11592;45.460;9.240;2022-12-18T05:02:40;6.00;99.90
22852;DHT22;11592;45.460;9.240;2022-12-18T05:05:08;6.10;99.90
22852;DHT22;11592;45.460;9.240;2022-12-18T05:07:35;6.00;99.90
22852;DHT22;11592;45.460;9.240;2022-12-18T05:10:03;5.80;99.90
22852;DHT22;11592;45.460;9.240;2022-12-18T05:12:31;5.70;99.90
22852;DHT22;11592;45.460;9.240;2022-12-18T05:14:58;5.70;99.90
22852;DHT22;11592;45.460;9.240;2022-12-18T05:17:24;5.70;99.90
22852;DHT22;11592;45.460;9.240;2022-12-18T05:19:51;5.80;99.90
22852;DHT22;11592;45.460;9.240;2022-12-18T05:22:18;5.80;99.90
22852;DHT22;11592;45.460;9.240;2022-12-18T05:24:44;5.80;99.90
22852;DHT22;11592;45.460;9.240;2022-12-18T05:27:11;5.70;99.90
22852;DHT22;11592;45.460;9.240;2022-12-18T05:29:38;5.80;99.90
22852;DHT22;11592;45.460;9.240;2022-12-18T05:32:05;5.70;99.90
22852;DHT22;11592;45.460;9.240;2022-12-18T05:34:32;5.60;99.90
22852;DHT22;11592;45.460;9.240;2022-12-18T05:36:59;5.60;99.90
22852;DHT22;11592;45.460;9.240;2022-12-18T05:39:26;5.60;99.90
22852;DHT22;11592;45.460;9.240;2022-12-18T05:41:53;5.60;99.90
22852;DHT22;11592;45.460;9.240;2022-12-18T05:44:20;5.70;99.90
22852;DHT22;11592;45.460;9.240;2022-12-18T05:46:46;5.60;99.90
22852;DHT22;11592;45.460;9.240;2022-12-18T05:49:13;5.60;99.90
22852;DHT22;11592;45.460;9.240;2022-12-18T05:51:40;5.60;99.90
22852;DHT22;11592;45.460;9.240;2022-12-18T05:54:08;5.60;99.90
22852;DHT22;11592;45.460;9.240;2022-12-18T05:56:35;5.60;99.90
22852;DHT22;11592;45.460;9.240;2022-12-18T05:59:02;5.60;99.90
22852;DHT22;11592;45.460;9.240;2022-12-18T06:01:29;5.60;99.90
22852;DHT22;11592;45.460;9.240;2022-12-18T06:03:56;5.50;99.90
22852;DHT22;11592;45.460;9.240;2022-12-18T06:06:26;5.60;99.90
22852;DHT22;11592;45.460;9.240;2022-12-18T06:08:53;5.60;99.90
22852;DHT22;11592;45.460;9.240;2022-12-18T06:11:23;5.60;99.90
22852;DHT22;11592;45.460;9.240;2022-12-18T06:13:55;5.50;99.90
22852;DHT22;11592;45.460;9.240;2022-12-18T06:16:25;5.60;99.90
22852;DHT22;11592;45.460;9.240;2022-12-18T06:18:53;5.60;99.90
22852;DHT22;11592;45.460;9.240;2022-12-18T06:21:19;5.60;99.90
22852;DHT22;11592;45.460;9.240;2022-12-18T06:23:46;5.60;99.90
22852;DHT22;11592;45.460;9.240;2022-12-18T06:26:13;5.70;99.90
22852;DHT22;11592;45.460;9.240;2022-12-18T06:28:41;5.80;99.90
22852;DHT22;11592;45.460;9.240;2022-12-18T06:31:08;5.70;99.90
22852;DHT22;11592;45.460;9.240;2022-12-18T06:33:36;5.70;99.90
22852;DHT22;11592;45.460;9.240;2022-12-18T06:36:10;5.70;99.90
22852;DHT22;11592;45.460;9.240;2022-12-18T06:38:40;5.70;99.90
22852;DHT22;11592;45.460;9.240;2022-12-18T06:41:13;5.80;99.90
22852;DHT22;11592;45.460;9.240;2022-12-18T06:43:41;5.70;99.90
22852;DHT22;11592;45.460;9.240;2022-12-18T06:46:10;5.70;99.90
22852;DHT22;11592;45.460;9.240;2022-12-18T06:48:37;5.70;99.90
22852;DHT22;11592;45.460;9.240;2022-12-18T06:51:04;5.80;99.90
22852;DHT22;11592;45.460;9.240;2022-12-18T06:53:32;5.70;99.90
22852;DHT22;11592;45.460;9.240;2022-12-18T06:56:06;5.80;99.90
22852;DHT22;11592;45.460;9.240;2022-12-18T06:58:37;5.60;99.90
22852;DHT22;11592;45.460;9.240;2022-12-18T07:01:05;5.50;99.90
22852;DHT22;11592;45.460;9.240;2022-12-18T07:03:32;5.50;99.90
22852;DHT22;11592;45.460;9.240;2022-12-18T07:05:59;5.50;99.90
22852;DHT22;11592;45.460;9.240;2022-12-18T07:08:26;5.50;99.90
22852;DHT22;11592;45.460;9.240;2022-12-18T07:10:53;5.50;99.90
22852;DHT22;11592;45.460;9.240;2022-12-18T07:13:22;5.40;99.90
22852;DHT22;11592;45.460;9.240;2022-12-18T07:15:49;5.40;99.90
22852;DHT22;11592;45.460;9.240;2022-12-18T07:18:15;5.40;99.90
22852;DHT22;11592;45.460;9.240;2022-12-18T07:20:42;5.40;99.90
22852;DHT22;11592;45.460;9.240;2022-12-18T07:23:09;5.40;99.90
22852;DHT22;11592;45.460;9.240;2022-12-18T07:25:36;5.40;99.90
22852;DHT22;11592;45.460;9.240;2022-12-18T07:28:04;5.40;99.90
22852;DHT22;11592;45.460;9.240;2022-12-18T07:30:30;5.40;99.90
22852;DHT22;11592;45.460;9.240;2022-12-18T07:32:57;5.40;99.90
22852;DHT22;11592;45.460;9.240;2022-12-18T07:35:24;5.40;99.90
22852;DHT22;11592;45.460;9.240;2022-12-18T07:37:51;5.50;99.90
22852;DHT22;11592;45.460;9.240;2022-12-18T07:40:18;5.40;99.90
22852;DHT22;11592;45.460;9.240;2022-12-18T07:42:45;5.50;99.90
22852;DHT22;11592;45.460;9.240;2022-12-18T07:45:11;5.40;99.90
22852;DHT22;11592;45.460;9.240;2022-12-18T07:47:38;5.40;99.90
22852;DHT22;11592;45.460;9.240;2022-12-18T07:50:05;5.40;99.90
22852;DHT22;11592;45.460;9.240;2022-12-18T07:52:32;5.40;99.90
22852;DHT22;11592;45.460;9.240;2022-12-18T07:54:59;5.40;99.90
22852;DHT22;11592;45.460;9.240;2022-12-18T07:57:26;5.40;99.90
22852;DHT22;11592;45.460;9.240;2022-12-18T08:00:13;5.50;99.90
22852;DHT22;11592;45.460;9.240;2022-12-18T08:02:40;5.50;99.90
22852;DHT22;11592;45.460;9.240;2022-12-18T08:05:08;5.50;99.90
22852;DHT22;11592;45.460;9.240;2022-12-18T08:07:35;5.50;99.90
22852;DHT22;11592;45.460;9.240;2022-12-18T08:10:01;5.40;99.90
22852;DHT22;11592;45.460;9.240;2022-12-18T08:12:29;5.50;99.90
22852;DHT22;11592;45.460;9.240;2022-12-18T08:14:56;5.80;99.90
22852;DHT22;11592;45.460;9.240;2022-12-18T08:17:23;5.90;99.90
22852;DHT22;11592;45.460;9.240;2022-12-18T08:19:49;6.20;99.90
22852;DHT22;11592;45.460;9.240;2022-12-18T08:22:16;6.40;99.90
22852;DHT22;11592;45.460;9.240;2022-12-18T08:24:43;6.50;99.90
22852;DHT22;11592;45.460;9.240;2022-12-18T08:27:09;6.60;99.90
22852;DHT22;11592;45.460;9.240;2022-12-18T08:29:55;6.40;99.90
22852;DHT22;11592;45.460;9.240;2022-12-18T08:32:22;6.30;99.90
22852;DHT22;11592;45.460;9.240;2022-12-18T08:34:49;6.50;99.90
22852;DHT22;11592;45.460;9.240;2022-12-18T08:37:16;6.70;99.90
22852;DHT22;11592;45.460;9.240;2022-12-18T08:39:42;6.90;99.90
22852;DHT22;11592;45.460;9.240;2022-12-18T08:42:09;7.00;99.90
22852;DHT22;11592;45.460;9.240;2022-12-18T08:44:55;7.10;99.90
22852;DHT22;11592;45.460;9.240;2022-12-18T08:47:22;7.20;99.90
22852;DHT22;11592;45.460;9.240;2022-12-18T08:49:48;7.30;99.90
22852;DHT22;11592;45.460;9.240;2022-12-18T08:52:15;7.40;99.90
22852;DHT22;11592;45.460;9.240;2022-12-18T08:54:42;7.50;99.90
22852;DHT22;11592;45.460;9.240;2022-12-18T08:57:09;7.40;99.90
22852;DHT22;11592;45.460;9.240;2022-12-18T08:59:36;7.30;99.90
22852;DHT22;11592;45.460;9.240;2022-12-18T09:02:03;7.30;99.90
22852;DHT22;11592;45.460;9.240;2022-12-18T09:04:30;7.20;99.90
22852;DHT22;11592;45.460;9.240;2022-12-18T09:06:56;7.00;99.90
22852;DHT22;11592;45.460;9.240;2022-12-18T09:09:23;7.00;99.90
22852;DHT22;11592;45.460;9.240;2022-12-18T09:11:50;6.90;99.90
22852;DHT22;11592;45.460;9.240;2022-12-18T09:14:17;6.80;99.90
22852;DHT22;11592;45.460;9.240;2022-12-18T09:16:44;6.80;99.90
22852;DHT22;11592;45.460;9.240;2022-12-18T09:19:11;6.70;99.90
22852;DHT22;11592;45.460;9.240;2022-12-18T09:21:38;6.70;99.90
22852;DHT22;11592;45.460;9.240;2022-12-18T09:24:14;6.70;99.90
22852;DHT22;11592;45.460;9.240;2022-12-18T09:26:42;6.70;99.90
22852;DHT22;11592;45.460;9.240;2022-12-18T09:29:13;6.90;99.90
22852;DHT22;11592;45.460;9.240;2022-12-18T09:31:40;7.00;99.90
22852;DHT22;11592;45.460;9.240;2022-12-18T09:34:07;7.00;99.90
22852;DHT22;11592;45.460;9.240;2022-12-18T09:36:34;6.90;99.90
22852;DHT22;11592;45.460;9.240;2022-12-18T09:39:02;6.90;99.90
22852;DHT22;11592;45.460;9.240;2022-12-18T09:41:53;7.10;99.90
22852;DHT22;11592;45.460;9.240;2022-12-18T09:44:24;7.20;99.90
22852;DHT22;11592;45.460;9.240;2022-12-18T09:47:09;7.10;99.90
22852;DHT22;11592;45.460;9.240;2022-12-18T09:49:42;7.20;99.90
22852;DHT22;11592;45.460;9.240;2022-12-18T09:52:17;7.20;99.90
22852;DHT22;11592;45.460;9.240;2022-12-18T09:55:22;7.10;99.90
22852;DHT22;11592;45.460;9.240;2022-12-18T09:58:02;7.10;99.90
22852;DHT22;11592;45.460;9.240;2022-12-18T10:00:33;7.00;99.90
22852;DHT22;11592;45.460;9.240;2022-12-18T10:03:09;7.00;99.90
22852;DHT22;11592;45.460;9.240;2022-12-18T10:08:22;6.90;99.90
22852;DHT22;11592;45.460;9.240;2022-12-18T10:10:59;6.90;99.90
22852;DHT22;11592;45.460;9.240;2022-12-18T10:13:42;6.80;99.90
22852;DHT22;11592;45.460;9.240;2022-12-18T10:21:21;7.20;99.90
22852;DHT22;11592;45.460;9.240;2022-12-18T10:24:08;7.30;99.90
22852;DHT22;11592;45.460;9.240;2022-12-18T10:26:36;7.40;99.90
22852;DHT22;11592;45.460;9.240;2022-12-18T10:29:13;7.70;99.90
22852;DHT22;11592;45.460;9.240;2022-12-18T10:31:40;7.80;99.90
22852;DHT22;11592;45.460;9.240;2022-12-18T10:34:15;7.90;99.90
22852;DHT22;11592;45.460;9.240;2022-12-18T10:36:42;7.80;99.90
22852;DHT22;11592;45.460;9.240;2022-12-18T10:39:23;8.00;99.90
22852;DHT22;11592;45.460;9.240;2022-12-18T10:41:51;8.40;99.90
22852;DHT22;11592;45.460;9.240;2022-12-18T10:44:20;8.50;99.90
22852;DHT22;11592;45.460;9.240;2022-12-18T10:46:54;8.60;99.90
22852;DHT22;11592;45.460;9.240;2022-12-18T10:49:32;8.60;99.90
22852;DHT22;11592;45.460;9.240;2022-12-18T10:52:21;8.60;99.90
22852;DHT22;11592;45.460;9.240;2022-12-18T10:59:54;8.20;99.90
22852;DHT22;11592;45.460;9.240;2022-12-18T11:02:40;8.30;99.90
22852;DHT22;11592;45.460;9.240;2022-12-18T11:07:53;8.30;99.90
22852;DHT22;11592;45.460;9.240;2022-12-18T11:10:23;8.30;99.90
22852;DHT22;11592;45.460;9.240;2022-12-18T11:12:52;8.50;99.90
22852;DHT22;11592;45.460;9.240;2022-12-18T11:15:21;8.60;99.90
22852;DHT22;11592;45.460;9.240;2022-12-18T11:17:50;8.50;99.90
22852;DHT22;11592;45.460;9.240;2022-12-18T11:20:29;8.50;99.90
22852;DHT22;11592;45.460;9.240;2022-12-18T11:23:10;8.40;99.90
22852;DHT22;11592;45.460;9.240;2022-12-18T11:25:38;8.20;99.90
22852;DHT22;11592;45.460;9.240;2022-12-18T11:28:26;8.20;99.90
22852;DHT22;11592;45.460;9.240;2022-12-18T11:33:43;8.50;99.90
22852;DHT22;11592;45.460;9.240;2022-12-18T11:36:38;8.90;99.90
22852;DHT22;11592;45.460;9.240;2022-12-18T11:42:30;9.40;99.90
22852;DHT22;11592;45.460;9.240;2022-12-18T11:44:46;9.40;99.90
22852;DHT22;11592;45.460;9.240;2022-12-18T11:47:39;9.50;99.90
22852;DHT22;11592;45.460;9.240;2022-12-18T11:50:23;9.60;99.90
22852;DHT22;11592;45.460;9.240;2022-12-18T11:52:50;9.80;99.90
22852;DHT22;11592;45.460;9.240;2022-12-18T11:55:33;10.00;99.90
22852;DHT22;11592;45.460;9.240;2022-12-18T11:58:07;10.30;99.90
22852;DHT22;11592;45.460;9.240;2022-12-18T12:00:46;12.00;99.90
22852;DHT22;11592;45.460;9.240;2022-12-18T12:23:11;24.10;93.40
22852;DHT22;11592;45.460;9.240;2022-12-18T12:34:30;23.60;92.30
22852;DHT22;11592;45.460;9.240;2022-12-18T12:39:39;23.10;91.80
22852;DHT22;11592;45.460;9.240;2022-12-18T12:42:17;22.80;91.70
22852;DHT22;11592;45.460;9.240;2022-12-18T12:45:05;24.00;89.70
22852;DHT22;11592;45.460;9.240;2022-12-18T12:47:38;23.10;91.00
22852;DHT22;11592;45.460;9.240;2022-12-18T12:50:14;23.40;90.90
22852;DHT22;11592;45.460;9.240;2022-12-18T12:52:46;22.60;91.00
22852;DHT22;11592;45.460;9.240;2022-12-18T12:55:22;22.10;91.90
22852;DHT22;11592;45.460;9.240;2022-12-18T13:06:39;20.10;94.60
22852;DHT22;11592;45.460;9.240;2022-12-18T13:09:11;19.30;95.60
22852;DHT22;11592;45.460;9.240;2022-12-18T13:11:44;19.00;96.20
22852;DHT22;11592;45.460;9.240;2022-12-18T13:14:35;18.90;96.80
22852;DHT22;11592;45.460;9.240;2022-12-18T13:20:14;17.70;98.80
22852;DHT22;11592;45.460;9.240;2022-12-18T13:22:45;17.40;99.20
22852;DHT22;11592;45.460;9.240;2022-12-18T13:25:32;17.00;99.90
22852;DHT22;11592;45.460;9.240;2022-12-18T13:28:00;17.10;99.90
22852;DHT22;11592;45.460;9.240;2022-12-18T13:38:42;17.40;99.90
22852;DHT22;11592;45.460;9.240;2022-12-18T13:41:26;17.30;99.90
22852;DHT22;11592;45.460;9.240;2022-12-18T13:44:30;17.30;99.90
22852;DHT22;11592;45.460;9.240;2022-12-18T13:47:34;16.40;99.90
22852;DHT22;11592;45.460;9.240;2022-12-18T13:50:25;15.60;99.90
22852;DHT22;11592;45.460;9.240;2022-12-18T13:53:00;14.60;99.90
22852;DHT22;11592;45.460;9.240;2022-12-18T13:55:29;13.80;99.90
22852;DHT22;11592;45.460;9.240;2022-12-18T13:58:05;13.50;99.90
22852;DHT22;11592;45.460;9.240;2022-12-18T14:00:33;13.00;99.90
22852;DHT22;11592;45.460;9.240;2022-12-18T14:03:00;12.40;99.90
22852;DHT22;11592;45.460;9.240;2022-12-18T14:05:32;11.70;99.90
22852;DHT22;11592;45.460;9.240;2022-12-18T14:08:05;11.20;99.90
22852;DHT22;11592;45.460;9.240;2022-12-18T14:10:35;11.00;99.90
22852;DHT22;11592;45.460;9.240;2022-12-18T14:13:35;10.80;99.90
22852;DHT22;11592;45.460;9.240;2022-12-18T14:16:06;10.80;99.90
22852;DHT22;11592;45.460;9.240;2022-12-18T14:18:52;10.70;99.90
22852;DHT22;11592;45.460;9.240;2022-12-18T14:21:46;10.80;99.90
22852;DHT22;11592;45.460;9.240;2022-12-18T14:24:19;10.30;99.90
22852;DHT22;11592;45.460;9.240;2022-12-18T14:26:50;10.10;99.90
22852;DHT22;11592;45.460;9.240;2022-12-18T14:29:23;9.90;99.90
22852;DHT22;11592;45.460;9.240;2022-12-18T14:32:16;9.70;99.90
22852;DHT22;11592;45.460;9.240;2022-12-18T14:34:52;9.50;99.90
22852;DHT22;11592;45.460;9.240;2022-12-18T14:37:26;9.20;99.90
22852;DHT22;11592;45.460;9.240;2022-12-18T14:39:58;9.10;99.90
22852;DHT22;11592;45.460;9.240;2022-12-18T14:42:32;8.90;99.90
22852;DHT22;11592;45.460;9.240;2022-12-18T14:45:32;8.90;99.90
22852;DHT22;11592;45.460;9.240;2022-12-18T14:48:08;8.80;99.90
22852;DHT22;11592;45.460;9.240;2022-12-18T14:50:36;8.90;99.90
22852;DHT22;11592;45.460;9.240;2022-12-18T14:53:17;8.70;99.90
22852;DHT22;11592;45.460;9.240;2022-12-18T14:55:46;8.60;99.90
22852;DHT22;11592;45.460;9.240;2022-12-18T14:58:16;8.40;99.90
22852;DHT22;11592;45.460;9.240;2022-12-18T15:00:44;8.30;99.90
22852;DHT22;11592;45.460;9.240;2022-12-18T15:03:17;8.10;99.90
22852;DHT22;11592;45.460;9.240;2022-12-18T15:05:45;8.10;99.90
22852;DHT22;11592;45.460;9.240;2022-12-18T15:08:31;8.00;99.90
22852;DHT22;11592;45.460;9.240;2022-12-18T15:11:01;7.90;99.90
22852;DHT22;11592;45.460;9.240;2022-12-18T15:13:28;8.00;99.90
22852;DHT22;11592;45.460;9.240;2022-12-18T15:15:57;7.80;99.90
22852;DHT22;11592;45.460;9.240;2022-12-18T15:18:33;7.70;99.90
22852;DHT22;11592;45.460;9.240;2022-12-18T15:21:09;7.50;99.90
22852;DHT22;11592;45.460;9.240;2022-12-18T15:23:49;7.40;99.90
22852;DHT22;11592;45.460;9.240;2022-12-18T15:26:19;7.30;99.90
22852;DHT22;11592;45.460;9.240;2022-12-18T15:28:54;7.30;99.90
22852;DHT22;11592;45.460;9.240;2022-12-18T15:36:23;7.10;99.90
22852;DHT22;11592;45.460;9.240;2022-12-18T15:38:54;7.10;99.90
22852;DHT22;11592;45.460;9.240;2022-12-18T15:41:27;7.10;99.90
22852;DHT22;11592;45.460;9.240;2022-12-18T15:43:54;7.10;99.90
22852;DHT22;11592;45.460;9.240;2022-12-18T15:46:23;7.00;99.90
22852;DHT22;11592;45.460;9.240;2022-12-18T15:48:55;7.00;99.90
22852;DHT22;11592;45.460;9.240;2022-12-18T15:51:33;7.00;99.90
22852;DHT22;11592;45.460;9.240;2022-12-18T15:54:03;7.10;99.90
22852;DHT22;11592;45.460;9.240;2022-12-18T15:56:31;7.00;99.90
22852;DHT22;11592;45.460;9.240;2022-12-18T15:59:27;6.90;99.90
22852;DHT22;11592;45.460;9.240;2022-12-18T16:01:54;6.80;99.90
22852;DHT22;11592;45.460;9.240;2022-12-18T16:04:22;6.80;99.90
22852;DHT22;11592;45.460;9.240;2022-12-18T16:06:51;6.70;99.90
22852;DHT22;11592;45.460;9.240;2022-12-18T16:09:40;6.70;99.90
22852;DHT22;11592;45.460;9.240;2022-12-18T16:12:17;6.60;99.90
22852;DHT22;11592;45.460;9.240;2022-12-18T16:14:44;6.50;99.90
22852;DHT22;11592;45.460;9.240;2022-12-18T16:17:12;6.40;99.90
22852;DHT22;11592;45.460;9.240;2022-12-18T16:19:40;6.40;99.90
22852;DHT22;11592;45.460;9.240;2022-12-18T16:22:25;6.40;99.90
22852;DHT22;11592;45.460;9.240;2022-12-18T16:24:54;6.40;99.90
22852;DHT22;11592;45.460;9.240;2022-12-18T16:27:22;6.40;99.90
22852;DHT22;11592;45.460;9.240;2022-12-18T16:29:49;6.30;99.90
22852;DHT22;11592;45.460;9.240;2022-12-18T16:32:21;6.30;99.90
22852;DHT22;11592;45.460;9.240;2022-12-18T16:34:49;6.30;99.90
22852;DHT22;11592;45.460;9.240;2022-12-18T16:37:16;6.30;99.90
22852;DHT22;11592;45.460;9.240;2022-12-18T16:39:43;6.30;99.90
22852;DHT22;11592;45.460;9.240;2022-12-18T16:42:11;6.30;99.90
22852;DHT22;11592;45.460;9.240;2022-12-18T16:44:43;6.30;99.90
22852;DHT22;11592;45.460;9.240;2022-12-18T16:47:11;6.20;99.90
22852;DHT22;11592;45.460;9.240;2022-12-18T16:49:41;6.20;99.90
22852;DHT22;11592;45.460;9.240;2022-12-18T16:52:08;6.30;99.90
22852;DHT22;11592;45.460;9.240;2022-12-18T16:54:35;6.30;99.90
22852;DHT22;11592;45.460;9.240;2022-12-18T16:57:02;6.20;99.90
22852;DHT22;11592;45.460;9.240;2022-12-18T16:59:30;6.30;99.90
22852;DHT22;11592;45.460;9.240;2022-12-18T17:01:57;6.50;99.90
22852;DHT22;11592;45.460;9.240;2022-12-18T17:04:24;6.40;99.90
22852;DHT22;11592;45.460;9.240;2022-12-18T17:06:51;6.30;99.90
22852;DHT22;11592;45.460;9.240;2022-12-18T17:09:20;6.30;99.90
22852;DHT22;11592;45.460;9.240;2022-12-18T17:11:54;6.30;99.90
22852;DHT22;11592;45.460;9.240;2022-12-18T17:14:22;6.20;99.90
22852;DHT22;11592;45.460;9.240;2022-12-18T17:16:49;6.20;99.90
22852;DHT22;11592;45.460;9.240;2022-12-18T17:19:33;6.20;99.90
22852;DHT22;11592;45.460;9.240;2022-12-18T17:22:00;6.20;99.90
22852;DHT22;11592;45.460;9.240;2022-12-18T17:24:28;6.20;99.90
22852;DHT22;11592;45.460;9.240;2022-12-18T17:27:01;6.20;99.90
22852;DHT22;11592;45.460;9.240;2022-12-18T17:29:28;6.20;99.90
22852;DHT22;11592;45.460;9.240;2022-12-18T17:31:55;6.10;99.90
22852;DHT22;11592;45.460;9.240;2022-12-18T17:34:26;6.10;99.90
22852;DHT22;11592;45.460;9.240;2022-12-18T17:36:53;6.00;99.90
22852;DHT22;11592;45.460;9.240;2022-12-18T17:39:20;6.10;99.90
22852;DHT22;11592;45.460;9.240;2022-12-18T17:41:47;6.10;99.90
22852;DHT22;11592;45.460;9.240;2022-12-18T17:44:15;6.10;99.90
22852;DHT22;11592;45.460;9.240;2022-12-18T17:46:44;6.20;99.90